sensor_id;sensor_type;location;lat;lon;timestamp;P1;durP1;ratioP1;P2;durP2;ratioP2
55710;SDS011;41612;51.994;5.880;2023-07-24T00:00:09;2.83;;;2.03;;
55710;SDS011;41612;51.994;5.880;2023-07-24T00:02:35;2.85;;;1.83;;
55710;SDS011;41612;51.994;5.880;2023-07-24T00:05:00;2.85;;;1.48;;
55710;SDS011;41612;51.994;5.880;2023-07-24T00:07:26;2.85;;;1.70;;
55710;SDS011;41612;51.994;5.880;2023-07-24T00:09:52;3.28;;;2.30;;
55710;SDS011;41612;51.994;5.880;2023-07-24T00:12:18;3.03;;;2.20;;
55710;SDS011;41612;51.994;5.880;2023-07-24T00:14:43;5.43;;;2.70;;
55710;SDS011;41612;51.994;5.880;2023-07-24T00:17:09;3.58;;;2.30;;
55710;SDS011;41612;51.994;5.880;2023-07-24T00:19:34;3.42;;;2.00;;
55710;SDS011;41612;51.994;5.880;2023-07-24T00:22:00;2.50;;;1.70;;
55710;SDS011;41612;51.994;5.880;2023-07-24T00:24:26;3.78;;;2.47;;
55710;SDS011;41612;51.994;5.880;2023-07-24T00:26:52;2.88;;;2.08;;
55710;SDS011;41612;51.994;5.880;2023-07-24T00:29:18;5.15;;;1.95;;
55710;SDS011;41612;51.994;5.880;2023-07-24T00:31:43;2.60;;;1.73;;
55710;SDS011;41612;51.994;5.880;2023-07-24T00:34:09;2.22;;;1.58;;
55710;SDS011;41612;51.994;5.880;2023-07-24T00:36:35;3.05;;;2.10;;
55710;SDS011;41612;51.994;5.880;2023-07-24T00:39:00;3.45;;;2.28;;
55710;SDS011;41612;51.994;5.880;2023-07-24T00:41:26;3.67;;;2.53;;
55710;SDS011;41612;51.994;5.880;2023-07-24T00:43:53;4.13;;;2.85;;
55710;SDS011;41612;51.994;5.880;2023-07-24T00:46:20;2.85;;;1.80;;
55710;SDS011;41612;51.994;5.880;2023-07-24T00:48:47;3.10;;;2.08;;
55710;SDS011;41612;51.994;5.880;2023-07-24T00:51:13;3.60;;;2.58;;
55710;SDS011;41612;51.994;5.880;2023-07-24T00:53:39;4.80;;;3.28;;
55710;SDS011;41612;51.994;5.880;2023-07-24T00:56:06;3.45;;;2.30;;
55710;SDS011;41612;51.994;5.880;2023-07-24T00:58:33;3.65;;;3.10;;
55710;SDS011;41612;51.994;5.880;2023-07-24T01:01:01;3.83;;;1.92;;
55710;SDS011;41612;51.994;5.880;2023-07-24T01:03:31;2.92;;;1.77;;
55710;SDS011;41612;51.994;5.880;2023-07-24T01:06:00;3.72;;;2.30;;
55710;SDS011;41612;51.994;5.880;2023-07-24T01:08:27;3.60;;;2.30;;
55710;SDS011;41612;51.994;5.880;2023-07-24T01:11:01;4.15;;;1.95;;
55710;SDS011;41612;51.994;5.880;2023-07-24T01:13:39;4.13;;;2.35;;
55710;SDS011;41612;51.994;5.880;2023-07-24T01:16:09;2.70;;;1.90;;
55710;SDS011;41612;51.994;5.880;2023-07-24T01:18:39;2.55;;;1.60;;
55710;SDS011;41612;51.994;5.880;2023-07-24T01:21:05;5.63;;;2.50;;
55710;SDS011;41612;51.994;5.880;2023-07-24T01:26:45;3.67;;;2.33;;
55710;SDS011;41612;51.994;5.880;2023-07-24T01:29:11;2.85;;;2.22;;
55710;SDS011;41612;51.994;5.880;2023-07-24T01:31:36;4.40;;;1.75;;
55710;SDS011;41612;51.994;5.880;2023-07-24T01:34:02;2.55;;;1.70;;
55710;SDS011;41612;51.994;5.880;2023-07-24T01:36:28;2.80;;;2.13;;
55710;SDS011;41612;51.994;5.880;2023-07-24T01:38:54;3.15;;;1.80;;
55710;SDS011;41612;51.994;5.880;2023-07-24T01:41:19;4.20;;;2.72;;
55710;SDS011;41612;51.994;5.880;2023-07-24T01:43:46;3.28;;;2.70;;
55710;SDS011;41612;51.994;5.880;2023-07-24T01:46:12;3.13;;;2.30;;
55710;SDS011;41612;51.994;5.880;2023-07-24T01:48:38;4.00;;;3.17;;
55710;SDS011;41612;51.994;5.880;2023-07-24T01:51:04;4.82;;;2.20;;
55710;SDS011;41612;51.994;5.880;2023-07-24T01:53:29;5.13;;;2.88;;
55710;SDS011;41612;51.994;5.880;2023-07-24T01:55:55;4.53;;;3.53;;
55710;SDS011;41612;51.994;5.880;2023-07-24T01:58:21;6.10;;;4.75;;
55710;SDS011;41612;51.994;5.880;2023-07-24T02:00:47;4.38;;;3.50;;
55710;SDS011;41612;51.994;5.880;2023-07-24T02:03:12;7.78;;;4.18;;
55710;SDS011;41612;51.994;5.880;2023-07-24T02:05:38;5.22;;;3.58;;
55710;SDS011;41612;51.994;5.880;2023-07-24T02:08:04;4.60;;;3.17;;
55710;SDS011;41612;51.994;5.880;2023-07-24T02:10:29;2.67;;;1.98;;
55710;SDS011;41612;51.994;5.880;2023-07-24T02:12:55;3.70;;;2.75;;
55710;SDS011;41612;51.994;5.880;2023-07-24T02:15:21;5.00;;;4.03;;
55710;SDS011;41612;51.994;5.880;2023-07-24T02:17:46;7.15;;;5.50;;
55710;SDS011;41612;51.994;5.880;2023-07-24T02:20:12;6.35;;;4.50;;
55710;SDS011;41612;51.994;5.880;2023-07-24T02:22:38;4.15;;;3.13;;
55710;SDS011;41612;51.994;5.880;2023-07-24T02:25:05;5.43;;;4.38;;
55710;SDS011;41612;51.994;5.880;2023-07-24T02:27:31;3.60;;;2.40;;
55710;SDS011;41612;51.994;5.880;2023-07-24T02:29:59;5.50;;;3.58;;
55710;SDS011;41612;51.994;5.880;2023-07-24T02:32:26;4.05;;;2.80;;
55710;SDS011;41612;51.994;5.880;2023-07-24T02:34:52;3.30;;;2.72;;
55710;SDS011;41612;51.994;5.880;2023-07-24T02:37:18;8.38;;;3.95;;
55710;SDS011;41612;51.994;5.880;2023-07-24T02:39:44;5.90;;;3.70;;
55710;SDS011;41612;51.994;5.880;2023-07-24T02:42:10;5.60;;;4.05;;
55710;SDS011;41612;51.994;5.880;2023-07-24T02:44:36;6.50;;;4.25;;
55710;SDS011;41612;51.994;5.880;2023-07-24T02:47:02;5.70;;;4.25;;
55710;SDS011;41612;51.994;5.880;2023-07-24T02:49:28;5.50;;;4.28;;
55710;SDS011;41612;51.994;5.880;2023-07-24T02:51:54;3.75;;;3.03;;
55710;SDS011;41612;51.994;5.880;2023-07-24T02:54:20;4.60;;;3.58;;
55710;SDS011;41612;51.994;5.880;2023-07-24T02:56:45;7.38;;;4.68;;
55710;SDS011;41612;51.994;5.880;2023-07-24T02:59:12;4.47;;;3.40;;
55710;SDS011;41612;51.994;5.880;2023-07-24T03:01:37;6.10;;;3.72;;
55710;SDS011;41612;51.994;5.880;2023-07-24T03:04:03;5.50;;;4.22;;
55710;SDS011;41612;51.994;5.880;2023-07-24T03:06:30;5.35;;;3.70;;
55710;SDS011;41612;51.994;5.880;2023-07-24T03:08:56;4.18;;;2.60;;
55710;SDS011;41612;51.994;5.880;2023-07-24T03:11:23;4.45;;;3.53;;
55710;SDS011;41612;51.994;5.880;2023-07-24T03:13:48;10.48;;;5.82;;
55710;SDS011;41612;51.994;5.880;2023-07-24T03:16:14;5.10;;;3.80;;
55710;SDS011;41612;51.994;5.880;2023-07-24T03:18:42;6.75;;;4.43;;
55710;SDS011;41612;51.994;5.880;2023-07-24T03:21:08;6.32;;;4.47;;
55710;SDS011;41612;51.994;5.880;2023-07-24T03:23:34;3.53;;;2.53;;
55710;SDS011;41612;51.994;5.880;2023-07-24T03:25:59;3.50;;;2.63;;
55710;SDS011;41612;51.994;5.880;2023-07-24T03:28:25;3.40;;;2.38;;
55710;SDS011;41612;51.994;5.880;2023-07-24T03:30:52;4.22;;;2.80;;
55710;SDS011;41612;51.994;5.880;2023-07-24T03:33:18;5.47;;;4.38;;
55710;SDS011;41612;51.994;5.880;2023-07-24T03:35:43;6.38;;;4.07;;
55710;SDS011;41612;51.994;5.880;2023-07-24T03:38:09;8.32;;;4.53;;
55710;SDS011;41612;51.994;5.880;2023-07-24T03:40:35;9.18;;;6.05;;
55710;SDS011;41612;51.994;5.880;2023-07-24T03:43:02;8.75;;;6.60;;
55710;SDS011;41612;51.994;5.880;2023-07-24T03:45:28;7.28;;;5.10;;
55710;SDS011;41612;51.994;5.880;2023-07-24T03:47:54;4.10;;;3.20;;
55710;SDS011;41612;51.994;5.880;2023-07-24T03:50:20;7.15;;;4.80;;
55710;SDS011;41612;51.994;5.880;2023-07-24T03:52:45;8.25;;;5.68;;
55710;SDS011;41612;51.994;5.880;2023-07-24T03:55:11;6.40;;;4.72;;
55710;SDS011;41612;51.994;5.880;2023-07-24T03:57:37;8.57;;;6.07;;
55710;SDS011;41612;51.994;5.880;2023-07-24T04:00:02;11.98;;;6.22;;
55710;SDS011;41612;51.994;5.880;2023-07-24T04:02:37;8.02;;;5.80;;
55710;SDS011;41612;51.994;5.880;2023-07-24T04:05:04;8.02;;;6.43;;
55710;SDS011;41612;51.994;5.880;2023-07-24T04:07:30;9.07;;;5.50;;
55710;SDS011;41612;51.994;5.880;2023-07-24T04:09:56;7.45;;;5.80;;
55710;SDS011;41612;51.994;5.880;2023-07-24T04:12:21;6.43;;;4.97;;
55710;SDS011;41612;51.994;5.880;2023-07-24T04:14:47;4.85;;;4.10;;
55710;SDS011;41612;51.994;5.880;2023-07-24T04:17:14;5.65;;;4.43;;
55710;SDS011;41612;51.994;5.880;2023-07-24T04:19:40;6.25;;;4.07;;
55710;SDS011;41612;51.994;5.880;2023-07-24T04:22:05;4.82;;;3.88;;
55710;SDS011;41612;51.994;5.880;2023-07-24T04:24:31;9.25;;;5.45;;
55710;SDS011;41612;51.994;5.880;2023-07-24T04:26:57;8.55;;;6.90;;
55710;SDS011;41612;51.994;5.880;2023-07-24T04:29:22;8.30;;;6.28;;
55710;SDS011;41612;51.994;5.880;2023-07-24T04:31:50;6.65;;;4.97;;
55710;SDS011;41612;51.994;5.880;2023-07-24T04:34:16;5.28;;;4.13;;
55710;SDS011;41612;51.994;5.880;2023-07-24T04:36:42;6.57;;;4.40;;
55710;SDS011;41612;51.994;5.880;2023-07-24T04:39:08;8.20;;;7.40;;
55710;SDS011;41612;51.994;5.880;2023-07-24T04:41:33;9.57;;;7.43;;
55710;SDS011;41612;51.994;5.880;2023-07-24T04:43:59;7.63;;;5.78;;
55710;SDS011;41612;51.994;5.880;2023-07-24T04:46:25;5.63;;;4.40;;
55710;SDS011;41612;51.994;5.880;2023-07-24T04:48:50;7.25;;;5.30;;
55710;SDS011;41612;51.994;5.880;2023-07-24T04:51:16;7.75;;;6.38;;
55710;SDS011;41612;51.994;5.880;2023-07-24T04:53:43;8.98;;;6.45;;
55710;SDS011;41612;51.994;5.880;2023-07-24T04:56:09;5.40;;;4.90;;
55710;SDS011;41612;51.994;5.880;2023-07-24T04:58:35;4.75;;;3.35;;
55710;SDS011;41612;51.994;5.880;2023-07-24T05:01:02;4.70;;;4.18;;
55710;SDS011;41612;51.994;5.880;2023-07-24T05:03:29;5.20;;;4.53;;
55710;SDS011;41612;51.994;5.880;2023-07-24T05:05:54;6.35;;;4.78;;
55710;SDS011;41612;51.994;5.880;2023-07-24T05:08:22;5.00;;;4.30;;
55710;SDS011;41612;51.994;5.880;2023-07-24T05:10:53;6.82;;;5.70;;
55710;SDS011;41612;51.994;5.880;2023-07-24T05:13:20;8.88;;;7.90;;
55710;SDS011;41612;51.994;5.880;2023-07-24T05:15:46;6.28;;;4.95;;
55710;SDS011;41612;51.994;5.880;2023-07-24T05:18:11;6.25;;;4.78;;
55710;SDS011;41612;51.994;5.880;2023-07-24T05:20:37;7.78;;;6.45;;
55710;SDS011;41612;51.994;5.880;2023-07-24T05:23:03;9.05;;;6.97;;
55710;SDS011;41612;51.994;5.880;2023-07-24T05:25:28;7.40;;;6.60;;
55710;SDS011;41612;51.994;5.880;2023-07-24T05:27:54;10.80;;;9.00;;
55710;SDS011;41612;51.994;5.880;2023-07-24T05:30:20;9.57;;;8.57;;
55710;SDS011;41612;51.994;5.880;2023-07-24T05:32:45;10.70;;;9.57;;
55710;SDS011;41612;51.994;5.880;2023-07-24T05:35:11;9.00;;;7.30;;
55710;SDS011;41612;51.994;5.880;2023-07-24T05:37:37;14.05;;;8.98;;
55710;SDS011;41612;51.994;5.880;2023-07-24T05:40:02;5.25;;;3.10;;
55710;SDS011;41612;51.994;5.880;2023-07-24T05:42:28;10.48;;;8.70;;
55710;SDS011;41612;51.994;5.880;2023-07-24T05:44:54;5.72;;;4.72;;
55710;SDS011;41612;51.994;5.880;2023-07-24T05:47:20;14.15;;;10.38;;
55710;SDS011;41612;51.994;5.880;2023-07-24T05:49:45;8.73;;;7.00;;
55710;SDS011;41612;51.994;5.880;2023-07-24T05:52:11;7.22;;;6.03;;
55710;SDS011;41612;51.994;5.880;2023-07-24T05:54:37;8.18;;;6.68;;
55710;SDS011;41612;51.994;5.880;2023-07-24T05:57:02;8.55;;;7.60;;
55710;SDS011;41612;51.994;5.880;2023-07-24T05:59:28;10.65;;;5.63;;
55710;SDS011;41612;51.994;5.880;2023-07-24T06:01:54;9.50;;;8.50;;
55710;SDS011;41612;51.994;5.880;2023-07-24T06:04:20;9.82;;;7.63;;
55710;SDS011;41612;51.994;5.880;2023-07-24T06:06:45;11.25;;;8.43;;
55710;SDS011;41612;51.994;5.880;2023-07-24T06:09:11;13.00;;;9.02;;
55710;SDS011;41612;51.994;5.880;2023-07-24T06:11:37;13.07;;;7.50;;
55710;SDS011;41612;51.994;5.880;2023-07-24T06:14:02;8.82;;;5.88;;
55710;SDS011;41612;51.994;5.880;2023-07-24T06:16:28;10.25;;;7.80;;
55710;SDS011;41612;51.994;5.880;2023-07-24T06:18:54;14.95;;;8.95;;
55710;SDS011;41612;51.994;5.880;2023-07-24T06:21:19;10.52;;;7.95;;
55710;SDS011;41612;51.994;5.880;2023-07-24T06:23:45;9.98;;;7.75;;
55710;SDS011;41612;51.994;5.880;2023-07-24T06:26:11;8.52;;;6.78;;
55710;SDS011;41612;51.994;5.880;2023-07-24T06:28:36;10.77;;;7.45;;
55710;SDS011;41612;51.994;5.880;2023-07-24T06:31:02;12.57;;;9.63;;
55710;SDS011;41612;51.994;5.880;2023-07-24T06:33:28;13.13;;;8.82;;
55710;SDS011;41612;51.994;5.880;2023-07-24T06:35:53;10.15;;;6.75;;
55710;SDS011;41612;51.994;5.880;2023-07-24T06:38:19;8.07;;;4.75;;
55710;SDS011;41612;51.994;5.880;2023-07-24T06:40:46;12.00;;;8.68;;
55710;SDS011;41612;51.994;5.880;2023-07-24T06:43:12;11.80;;;9.68;;
55710;SDS011;41612;51.994;5.880;2023-07-24T06:45:38;9.02;;;6.30;;
55710;SDS011;41612;51.994;5.880;2023-07-24T06:48:03;7.00;;;5.70;;
55710;SDS011;41612;51.994;5.880;2023-07-24T06:50:29;9.73;;;7.20;;
55710;SDS011;41612;51.994;5.880;2023-07-24T06:52:55;13.85;;;9.98;;
55710;SDS011;41612;51.994;5.880;2023-07-24T06:55:21;8.63;;;6.97;;
55710;SDS011;41612;51.994;5.880;2023-07-24T06:57:47;17.60;;;9.30;;
55710;SDS011;41612;51.994;5.880;2023-07-24T07:00:12;11.50;;;9.35;;
55710;SDS011;41612;51.994;5.880;2023-07-24T07:02:39;8.20;;;6.55;;
55710;SDS011;41612;51.994;5.880;2023-07-24T07:05:04;11.65;;;8.90;;
55710;SDS011;41612;51.994;5.880;2023-07-24T07:07:30;11.30;;;10.07;;
55710;SDS011;41612;51.994;5.880;2023-07-24T07:09:57;11.95;;;10.20;;
55710;SDS011;41612;51.994;5.880;2023-07-24T07:12:22;10.55;;;9.00;;
55710;SDS011;41612;51.994;5.880;2023-07-24T07:14:48;10.52;;;8.32;;
55710;SDS011;41612;51.994;5.880;2023-07-24T07:17:14;11.80;;;10.05;;
55710;SDS011;41612;51.994;5.880;2023-07-24T07:19:39;10.73;;;8.40;;
55710;SDS011;41612;51.994;5.880;2023-07-24T07:22:05;14.02;;;12.25;;
55710;SDS011;41612;51.994;5.880;2023-07-24T07:24:31;12.50;;;10.50;;
55710;SDS011;41612;51.994;5.880;2023-07-24T07:26:56;14.52;;;13.02;;
55710;SDS011;41612;51.994;5.880;2023-07-24T07:29:22;15.05;;;12.02;;
55710;SDS011;41612;51.994;5.880;2023-07-24T07:31:48;11.60;;;9.77;;
55710;SDS011;41612;51.994;5.880;2023-07-24T07:34:13;16.13;;;12.45;;
55710;SDS011;41612;51.994;5.880;2023-07-24T07:36:39;15.57;;;11.35;;
55710;SDS011;41612;51.994;5.880;2023-07-24T07:39:05;11.13;;;9.57;;
55710;SDS011;41612;51.994;5.880;2023-07-24T07:41:30;10.38;;;8.38;;
55710;SDS011;41612;51.994;5.880;2023-07-24T07:43:57;14.02;;;11.60;;
55710;SDS011;41612;51.994;5.880;2023-07-24T07:46:22;12.57;;;10.13;;
55710;SDS011;41612;51.994;5.880;2023-07-24T07:48:48;15.32;;;13.20;;
55710;SDS011;41612;51.994;5.880;2023-07-24T07:51:14;12.23;;;10.80;;
55710;SDS011;41612;51.994;5.880;2023-07-24T07:53:40;20.45;;;14.55;;
55710;SDS011;41612;51.994;5.880;2023-07-24T07:56:06;15.48;;;11.63;;
55710;SDS011;41612;51.994;5.880;2023-07-24T07:58:32;15.65;;;13.15;;
55710;SDS011;41612;51.994;5.880;2023-07-24T08:00:57;14.65;;;11.05;;
55710;SDS011;41612;51.994;5.880;2023-07-24T08:03:23;15.38;;;11.45;;
55710;SDS011;41612;51.994;5.880;2023-07-24T08:05:49;13.80;;;11.23;;
55710;SDS011;41612;51.994;5.880;2023-07-24T08:08:14;16.25;;;11.15;;
55710;SDS011;41612;51.994;5.880;2023-07-24T08:10:40;9.35;;;7.85;;
55710;SDS011;41612;51.994;5.880;2023-07-24T08:13:06;14.52;;;11.65;;
55710;SDS011;41612;51.994;5.880;2023-07-24T08:15:35;17.05;;;12.07;;
55710;SDS011;41612;51.994;5.880;2023-07-24T08:18:02;17.63;;;12.75;;
55710;SDS011;41612;51.994;5.880;2023-07-24T08:20:29;16.05;;;13.70;;
55710;SDS011;41612;51.994;5.880;2023-07-24T08:22:55;16.25;;;13.20;;
55710;SDS011;41612;51.994;5.880;2023-07-24T08:25:21;15.85;;;10.35;;
55710;SDS011;41612;51.994;5.880;2023-07-24T08:27:46;14.07;;;12.30;;
55710;SDS011;41612;51.994;5.880;2023-07-24T08:30:12;12.88;;;11.10;;
55710;SDS011;41612;51.994;5.880;2023-07-24T08:32:38;19.20;;;12.48;;
55710;SDS011;41612;51.994;5.880;2023-07-24T08:35:05;14.25;;;11.35;;
55710;SDS011;41612;51.994;5.880;2023-07-24T08:37:31;11.07;;;9.57;;
55710;SDS011;41612;51.994;5.880;2023-07-24T08:39:57;11.88;;;10.15;;
55710;SDS011;41612;51.994;5.880;2023-07-24T08:42:22;16.60;;;10.93;;
55710;SDS011;41612;51.994;5.880;2023-07-24T08:44:48;17.02;;;13.68;;
55710;SDS011;41612;51.994;5.880;2023-07-24T08:47:14;13.88;;;12.45;;
55710;SDS011;41612;51.994;5.880;2023-07-24T08:49:40;8.00;;;7.20;;
55710;SDS011;41612;51.994;5.880;2023-07-24T08:52:08;15.52;;;12.32;;
55710;SDS011;41612;51.994;5.880;2023-07-24T08:54:35;12.23;;;9.43;;
55710;SDS011;41612;51.994;5.880;2023-07-24T08:57:06;13.23;;;9.70;;
55710;SDS011;41612;51.994;5.880;2023-07-24T08:59:31;7.85;;;6.63;;
55710;SDS011;41612;51.994;5.880;2023-07-24T09:01:57;13.23;;;10.52;;
55710;SDS011;41612;51.994;5.880;2023-07-24T09:04:23;8.70;;;7.53;;
55710;SDS011;41612;51.994;5.880;2023-07-24T09:06:50;9.55;;;8.55;;
55710;SDS011;41612;51.994;5.880;2023-07-24T09:09:16;9.77;;;7.10;;
55710;SDS011;41612;51.994;5.880;2023-07-24T09:11:45;9.30;;;8.38;;
55710;SDS011;41612;51.994;5.880;2023-07-24T09:14:19;10.20;;;9.20;;
55710;SDS011;41612;51.994;5.880;2023-07-24T09:16:49;9.77;;;8.02;;
55710;SDS011;41612;51.994;5.880;2023-07-24T09:19:18;11.90;;;9.00;;
55710;SDS011;41612;51.994;5.880;2023-07-24T09:21:44;10.95;;;8.77;;
55710;SDS011;41612;51.994;5.880;2023-07-24T09:24:14;11.35;;;9.48;;
55710;SDS011;41612;51.994;5.880;2023-07-24T09:26:49;13.55;;;10.52;;
55710;SDS011;41612;51.994;5.880;2023-07-24T09:29:18;10.07;;;9.05;;
55710;SDS011;41612;51.994;5.880;2023-07-24T09:31:45;10.40;;;9.18;;
55710;SDS011;41612;51.994;5.880;2023-07-24T09:34:17;9.85;;;8.50;;
55710;SDS011;41612;51.994;5.880;2023-07-24T09:36:44;6.95;;;5.35;;
55710;SDS011;41612;51.994;5.880;2023-07-24T09:39:10;11.65;;;7.40;;
55710;SDS011;41612;51.994;5.880;2023-07-24T09:41:39;9.10;;;7.32;;
55710;SDS011;41612;51.994;5.880;2023-07-24T09:44:06;9.93;;;7.15;;
55710;SDS011;41612;51.994;5.880;2023-07-24T09:46:32;7.03;;;5.95;;
55710;SDS011;41612;51.994;5.880;2023-07-24T09:48:58;8.02;;;6.13;;
55710;SDS011;41612;51.994;5.880;2023-07-24T09:51:23;7.97;;;7.05;;
55710;SDS011;41612;51.994;5.880;2023-07-24T09:53:52;10.10;;;7.72;;
55710;SDS011;41612;51.994;5.880;2023-07-24T09:56:23;11.38;;;7.80;;
55710;SDS011;41612;51.994;5.880;2023-07-24T09:58:50;12.15;;;8.68;;
55710;SDS011;41612;51.994;5.880;2023-07-24T10:01:20;8.95;;;6.95;;
55710;SDS011;41612;51.994;5.880;2023-07-24T10:03:47;10.55;;;7.57;;
55710;SDS011;41612;51.994;5.880;2023-07-24T10:06:14;9.18;;;6.40;;
55710;SDS011;41612;51.994;5.880;2023-07-24T10:08:41;7.13;;;6.20;;
55710;SDS011;41612;51.994;5.880;2023-07-24T10:11:11;8.27;;;6.55;;
55710;SDS011;41612;51.994;5.880;2023-07-24T10:13:38;8.93;;;7.35;;
55710;SDS011;41612;51.994;5.880;2023-07-24T10:16:05;9.98;;;6.95;;
55710;SDS011;41612;51.994;5.880;2023-07-24T10:18:33;9.52;;;5.68;;
55710;SDS011;41612;51.994;5.880;2023-07-24T10:21:01;10.10;;;6.97;;
55710;SDS011;41612;51.994;5.880;2023-07-24T10:23:29;9.20;;;7.65;;
55710;SDS011;41612;51.994;5.880;2023-07-24T10:25:55;10.13;;;8.10;;
55710;SDS011;41612;51.994;5.880;2023-07-24T10:28:29;8.60;;;7.25;;
55710;SDS011;41612;51.994;5.880;2023-07-24T10:30:57;9.07;;;7.47;;
55710;SDS011;41612;51.994;5.880;2023-07-24T10:33:23;9.65;;;7.15;;
55710;SDS011;41612;51.994;5.880;2023-07-24T10:36:03;9.57;;;7.70;;
55710;SDS011;41612;51.994;5.880;2023-07-24T10:38:34;11.05;;;9.57;;
55710;SDS011;41612;51.994;5.880;2023-07-24T10:41:02;10.68;;;7.97;;
55710;SDS011;41612;51.994;5.880;2023-07-24T10:43:29;10.77;;;7.93;;
55710;SDS011;41612;51.994;5.880;2023-07-24T10:46:04;9.30;;;8.38;;
55710;SDS011;41612;51.994;5.880;2023-07-24T10:48:30;12.70;;;9.02;;
55710;SDS011;41612;51.994;5.880;2023-07-24T10:50:56;10.95;;;7.47;;
55710;SDS011;41612;51.994;5.880;2023-07-24T10:53:22;10.88;;;8.18;;
55710;SDS011;41612;51.994;5.880;2023-07-24T10:55:48;7.57;;;5.55;;
55710;SDS011;41612;51.994;5.880;2023-07-24T10:58:18;12.32;;;8.30;;
55710;SDS011;41612;51.994;5.880;2023-07-24T11:00:44;10.65;;;7.72;;
55710;SDS011;41612;51.994;5.880;2023-07-24T11:03:10;10.93;;;7.65;;
55710;SDS011;41612;51.994;5.880;2023-07-24T11:05:40;7.53;;;5.78;;
55710;SDS011;41612;51.994;5.880;2023-07-24T11:08:11;8.38;;;6.70;;
55710;SDS011;41612;51.994;5.880;2023-07-24T11:10:48;9.73;;;6.75;;
55710;SDS011;41612;51.994;5.880;2023-07-24T11:13:18;8.25;;;6.00;;
55710;SDS011;41612;51.994;5.880;2023-07-24T11:15:47;9.30;;;6.68;;
55710;SDS011;41612;51.994;5.880;2023-07-24T11:18:14;7.97;;;5.32;;
55710;SDS011;41612;51.994;5.880;2023-07-24T11:20:44;10.40;;;6.97;;
55710;SDS011;41612;51.994;5.880;2023-07-24T11:23:15;6.50;;;5.38;;
55710;SDS011;41612;51.994;5.880;2023-07-24T11:25:41;9.05;;;6.47;;
55710;SDS011;41612;51.994;5.880;2023-07-24T11:28:07;9.15;;;7.53;;
55710;SDS011;41612;51.994;5.880;2023-07-24T11:30:34;11.57;;;6.95;;
55710;SDS011;41612;51.994;5.880;2023-07-24T11:33:01;10.90;;;7.30;;
55710;SDS011;41612;51.994;5.880;2023-07-24T11:35:29;9.30;;;6.93;;
55710;SDS011;41612;51.994;5.880;2023-07-24T11:37:55;6.18;;;4.60;;
55710;SDS011;41612;51.994;5.880;2023-07-24T11:40:20;7.05;;;6.03;;
55710;SDS011;41612;51.994;5.880;2023-07-24T11:42:47;9.38;;;7.70;;
55710;SDS011;41612;51.994;5.880;2023-07-24T11:45:13;9.25;;;6.80;;
55710;SDS011;41612;51.994;5.880;2023-07-24T11:47:46;10.40;;;6.85;;
55710;SDS011;41612;51.994;5.880;2023-07-24T11:50:14;7.30;;;6.22;;
55710;SDS011;41612;51.994;5.880;2023-07-24T11:52:41;6.20;;;5.55;;
55710;SDS011;41612;51.994;5.880;2023-07-24T11:55:09;9.27;;;7.00;;
55710;SDS011;41612;51.994;5.880;2023-07-24T11:57:39;10.38;;;7.70;;
55710;SDS011;41612;51.994;5.880;2023-07-24T12:00:05;10.77;;;7.53;;
55710;SDS011;41612;51.994;5.880;2023-07-24T12:02:42;7.07;;;5.28;;
55710;SDS011;41612;51.994;5.880;2023-07-24T12:05:09;7.43;;;5.35;;
55710;SDS011;41612;51.994;5.880;2023-07-24T12:07:35;8.45;;;6.43;;
55710;SDS011;41612;51.994;5.880;2023-07-24T12:10:02;8.20;;;5.57;;
55710;SDS011;41612;51.994;5.880;2023-07-24T12:12:46;8.68;;;5.65;;
55710;SDS011;41612;51.994;5.880;2023-07-24T12:15:12;8.48;;;5.18;;
55710;SDS011;41612;51.994;5.880;2023-07-24T12:17:39;6.15;;;4.32;;
55710;SDS011;41612;51.994;5.880;2023-07-24T12:20:06;8.68;;;4.70;;
55710;SDS011;41612;51.994;5.880;2023-07-24T12:22:34;8.55;;;4.90;;
55710;SDS011;41612;51.994;5.880;2023-07-24T12:25:01;8.65;;;6.07;;
55710;SDS011;41612;51.994;5.880;2023-07-24T12:27:27;6.18;;;4.63;;
55710;SDS011;41612;51.994;5.880;2023-07-24T12:29:53;9.98;;;5.90;;
55710;SDS011;41612;51.994;5.880;2023-07-24T12:32:19;10.65;;;5.25;;
55710;SDS011;41612;51.994;5.880;2023-07-24T12:34:46;9.43;;;5.25;;
55710;SDS011;41612;51.994;5.880;2023-07-24T12:37:12;8.55;;;6.40;;
55710;SDS011;41612;51.994;5.880;2023-07-24T12:39:38;12.57;;;6.97;;
55710;SDS011;41612;51.994;5.880;2023-07-24T12:42:04;12.05;;;7.22;;
55710;SDS011;41612;51.994;5.880;2023-07-24T12:44:31;5.47;;;4.88;;
55710;SDS011;41612;51.994;5.880;2023-07-24T12:46:57;10.82;;;6.65;;
55710;SDS011;41612;51.994;5.880;2023-07-24T12:49:23;7.80;;;6.13;;
55710;SDS011;41612;51.994;5.880;2023-07-24T12:51:49;10.05;;;5.60;;
55710;SDS011;41612;51.994;5.880;2023-07-24T12:54:14;8.93;;;5.78;;
55710;SDS011;41612;51.994;5.880;2023-07-24T12:56:40;9.10;;;5.10;;
55710;SDS011;41612;51.994;5.880;2023-07-24T12:59:06;6.07;;;4.07;;
55710;SDS011;41612;51.994;5.880;2023-07-24T13:01:32;5.35;;;3.90;;
55710;SDS011;41612;51.994;5.880;2023-07-24T13:03:57;5.85;;;3.78;;
55710;SDS011;41612;51.994;5.880;2023-07-24T13:06:23;7.10;;;4.00;;
55710;SDS011;41612;51.994;5.880;2023-07-24T13:08:49;4.88;;;3.10;;
55710;SDS011;41612;51.994;5.880;2023-07-24T13:11:15;6.45;;;3.10;;
55710;SDS011;41612;51.994;5.880;2023-07-24T13:13:41;5.25;;;3.08;;
55710;SDS011;41612;51.994;5.880;2023-07-24T13:16:07;6.57;;;3.25;;
55710;SDS011;41612;51.994;5.880;2023-07-24T13:18:32;4.90;;;2.45;;
55710;SDS011;41612;51.994;5.880;2023-07-24T13:20:58;5.78;;;2.80;;
55710;SDS011;41612;51.994;5.880;2023-07-24T13:23:24;4.15;;;2.63;;
55710;SDS011;41612;51.994;5.880;2023-07-24T13:25:51;5.55;;;2.58;;
55710;SDS011;41612;51.994;5.880;2023-07-24T13:28:18;3.58;;;2.15;;
55710;SDS011;41612;51.994;5.880;2023-07-24T13:30:43;4.10;;;2.38;;
55710;SDS011;41612;51.994;5.880;2023-07-24T13:33:10;5.88;;;2.20;;
55710;SDS011;41612;51.994;5.880;2023-07-24T13:35:35;3.97;;;2.67;;
55710;SDS011;41612;51.994;5.880;2023-07-24T13:38:01;3.83;;;2.42;;
55710;SDS011;41612;51.994;5.880;2023-07-24T13:40:26;5.15;;;2.47;;
55710;SDS011;41612;51.994;5.880;2023-07-24T13:42:52;7.70;;;2.78;;
55710;SDS011;41612;51.994;5.880;2023-07-24T13:45:18;6.80;;;2.63;;
55710;SDS011;41612;51.994;5.880;2023-07-24T13:47:44;6.07;;;3.25;;
55710;SDS011;41612;51.994;5.880;2023-07-24T13:50:09;6.03;;;2.85;;
55710;SDS011;41612;51.994;5.880;2023-07-24T13:52:35;5.00;;;2.97;;
55710;SDS011;41612;51.994;5.880;2023-07-24T13:55:02;5.30;;;2.55;;
55710;SDS011;41612;51.994;5.880;2023-07-24T13:57:28;5.40;;;3.22;;
55710;SDS011;41612;51.994;5.880;2023-07-24T13:59:54;4.75;;;2.90;;
55710;SDS011;41612;51.994;5.880;2023-07-24T14:02:19;4.38;;;2.70;;
55710;SDS011;41612;51.994;5.880;2023-07-24T14:04:45;4.13;;;2.70;;
55710;SDS011;41612;51.994;5.880;2023-07-24T14:07:11;6.20;;;3.13;;
55710;SDS011;41612;51.994;5.880;2023-07-24T14:09:38;5.88;;;2.70;;
55710;SDS011;41612;51.994;5.880;2023-07-24T14:12:04;5.32;;;2.45;;
55710;SDS011;41612;51.994;5.880;2023-07-24T14:14:30;4.63;;;2.05;;
55710;SDS011;41612;51.994;5.880;2023-07-24T14:16:56;3.95;;;2.63;;
55710;SDS011;41612;51.994;5.880;2023-07-24T14:19:22;5.40;;;3.15;;
55710;SDS011;41612;51.994;5.880;2023-07-24T14:21:49;5.05;;;2.92;;
55710;SDS011;41612;51.994;5.880;2023-07-24T14:24:15;4.50;;;2.58;;
55710;SDS011;41612;51.994;5.880;2023-07-24T14:26:41;6.05;;;3.95;;
55710;SDS011;41612;51.994;5.880;2023-07-24T14:29:07;6.30;;;3.47;;
55710;SDS011;41612;51.994;5.880;2023-07-24T14:31:33;6.45;;;3.42;;
55710;SDS011;41612;51.994;5.880;2023-07-24T14:33:58;3.38;;;2.67;;
55710;SDS011;41612;51.994;5.880;2023-07-24T14:36:24;4.30;;;2.45;;
55710;SDS011;41612;51.994;5.880;2023-07-24T14:38:51;3.65;;;2.65;;
55710;SDS011;41612;51.994;5.880;2023-07-24T14:41:17;5.00;;;3.28;;